CheckWX is a tool to help pilots better visualize weather data.  It is not intended as a substitute for an official pre-flight weather briefing.

02:56:50 UTC

EHFS METAR
Vlissingen
Vlissingen, The Netherlands
Current

32 mins ago

EHFS 230225Z AUTO 17005KT 9999 NSC 19/17 Q1021 W///H///
Observed
Jul-23 @ 02:25 UTC
Wind
  • 170° at 5 KTS
Visibility
10,000+ meters
Flight Rules
VFR
Cloud Levels
  • Clear skies
Temperature
19°C / 66°F
Dewpoint
17°C / 63°F
Humidity
88%
Altimeter
30.15" Hg
Pressure
1020.92 hPa
Previous

1 hour ago

EHFS 230155Z AUTO 18004KT 150V210 9999 NSC 19/17 Q1021 W///H///
Observed
Jul-23 @ 01:55 UTC
Wind
  • 180° at 4 KTS
Visibility
10,000+ meters
Flight Rules
VFR
Cloud Levels
  • Clear skies
Temperature
19°C / 66°F
Dewpoint
17°C / 63°F
Humidity
88%
Altimeter
30.15" Hg
Pressure
1020.92 hPa
Previous

2 hours ago

EHFS 230125Z AUTO 17004KT 9999 NSC 19/17 Q1021 W///H///
Observed
Jul-23 @ 01:25 UTC
Wind
  • 170° at 4 KTS
Visibility
10,000+ meters
Flight Rules
VFR
Cloud Levels
  • Clear skies
Temperature
19°C / 66°F
Dewpoint
17°C / 63°F
Humidity
88%
Altimeter
30.15" Hg
Pressure
1020.92 hPa